»·PEaware :: N13C KVCV-KSNA

N13C :: KVCV-KSNA

FLIGHT INFORMATION

Flight Status: Arrived
Operator: Privately registered:
United States
More flights under this callsign
Pilot: Alec D. (17934)
Aircraft: BEECH AIRCRAFT BONANZA
(BE35)
More flights by this aircraft type
Origin: KVCV Socal Logistics
United States
Destination: KSNA John Wayne-Orange Co
United States
More flights between these airports :: More routes between these airports
Route: APLES V442 PDZ V21 SLI
File this flight plan on PilotEdge
Remarks:
Altitude:
(Current/Filed)
10,000ft
Speed:
(Current/Filed)
160kts
Departed: 27-Apr-20 05:05 PM
Arrived: 27-Apr-20 05:50 PM
Distance/Time
Traveled:
61nm/0:45
Distance/Time
To Go:
Arrived

Flight Plot

Page will automatically refresh every two minutes.

Flight plan parsing failed; only flown route is shown


Map Options




Map Legend


Flown Route
Filed Route
Departure Airport
Arrival Airport
Navaid (VOR, NDB)
Fix

Horizontal Profiles

Position Reports

Time Latitude Longitude Heading Altitude Ground
Speed
27-Apr-20 16:44 34.585037 -117.378282 134 2888ft 0kts
27-Apr-20 16:45 34.585037 -117.378282 134 2888ft 0kts
27-Apr-20 16:46 34.585036 -117.378280 134 2888ft 0kts
27-Apr-20 16:47 34.585032 -117.378275 134 2888ft 0kts
27-Apr-20 16:48 34.585029 -117.378271 134 2888ft 0kts
27-Apr-20 16:49 34.585025 -117.378266 134 2888ft 0kts
27-Apr-20 16:50 34.585021 -117.378262 134 2888ft 0kts
27-Apr-20 16:51 34.585018 -117.378257 134 2888ft 0kts
27-Apr-20 16:52 34.585251 -117.378050 18 2888ft 0kts
27-Apr-20 16:53 34.587431 -117.377517 345 2888ft 8kts
27-Apr-20 16:54 34.590079 -117.375294 44 2888ft 15kts
27-Apr-20 16:55 34.592767 -117.371808 83 2888ft 12kts
27-Apr-20 16:56 34.592729 -117.367736 90 2888ft 13kts
27-Apr-20 16:57 34.595766 -117.366617 10 2888ft 10kts
27-Apr-20 16:58 34.599223 -117.366459 9 2888ft 0kts
27-Apr-20 16:59 34.599233 -117.366456 10 2888ft 0kts
27-Apr-20 17:00 34.599238 -117.366455 10 2888ft 0kts
27-Apr-20 17:01 34.599246 -117.366453 10 2888ft 0kts
27-Apr-20 17:02 34.599618 -117.366303 353 2888ft 0kts
27-Apr-20 17:03 34.599895 -117.366391 340 2888ft 5kts
27-Apr-20 17:04 34.593202 -117.375283 227 2890ft 87kts
27-Apr-20 17:05 34.581935 -117.403746 262 3739ft 101kts
27-Apr-20 17:06 34.579603 -117.438336 266 4615ft 102kts
27-Apr-20 17:07 34.577257 -117.473678 265 5454ft 106kts
27-Apr-20 17:08 34.572032 -117.516096 261 6065ft 154kts
27-Apr-20 17:09 34.566053 -117.560923 262 7441ft 123kts
27-Apr-20 17:10 34.560859 -117.600876 264 8641ft 119kts
27-Apr-20 17:11 34.537844 -117.605871 135 9792ft 114kts
27-Apr-20 17:12 34.509210 -117.572037 137 10021ft 163kts
27-Apr-20 17:13 34.474160 -117.532844 135 9985ft 174kts
27-Apr-20 17:15 34.440337 -117.490163 131 9978ft 173kts
27-Apr-20 17:16 34.404785 -117.449506 135 9985ft 173kts
27-Apr-20 17:17 34.369380 -117.408487 134 9966ft 173kts
27-Apr-20 17:18 34.334886 -117.368340 135 9971ft 170kts
27-Apr-20 17:19 34.299661 -117.327392 135 9976ft 173kts
27-Apr-20 17:20 34.255434 -117.327274 208 10018ft 168kts
27-Apr-20 17:21 34.213762 -117.352422 208 10025ft 164kts
27-Apr-20 17:22 34.173089 -117.376985 208 10026ft 165kts
27-Apr-20 17:23 34.130261 -117.402792 208 10010ft 172kts
27-Apr-20 17:24 34.086599 -117.429069 208 10007ft 172kts
27-Apr-20 17:25 34.042772 -117.455430 208 9998ft 173kts
27-Apr-20 17:26 33.998878 -117.482121 209 9751ft 180kts
27-Apr-20 17:27 33.953693 -117.510191 208 9193ft 182kts
27-Apr-20 17:28 33.908804 -117.538378 208 8436ft 180kts
27-Apr-20 17:29 33.871907 -117.573861 253 7879ft 170kts
27-Apr-20 17:30 33.856345 -117.628152 252 7249ft 172kts
27-Apr-20 17:31 33.840755 -117.682375 251 6527ft 170kts
27-Apr-20 17:31 33.827582 -117.726655 252 5845ft 165kts
27-Apr-20 17:33 33.810949 -117.784918 252 4856ft 152kts
27-Apr-20 17:34 33.798371 -117.832134 252 4076ft 140kts
27-Apr-20 17:34 33.802423 -117.862306 343 3996ft 132kts
27-Apr-20 17:35 33.838161 -117.874685 342 3976ft 132kts
27-Apr-20 17:37 33.880032 -117.889243 342 3996ft 134kts
27-Apr-20 17:37 33.900330 -117.871856 80 3987ft 138kts
27-Apr-20 17:38 33.902503 -117.830305 91 3987ft 119kts
27-Apr-20 17:39 33.901374 -117.789872 92 3991ft 122kts
27-Apr-20 17:40 33.886363 -117.762054 182 3858ft 123kts
27-Apr-20 17:41 33.851425 -117.762523 191 3198ft 123kts
27-Apr-20 17:42 33.821333 -117.776292 207 2988ft 102kts
27-Apr-20 17:43 33.796900 -117.791587 209 2607ft 98kts
27-Apr-20 17:44 33.773278 -117.806922 209 2089ft 95kts
27-Apr-20 17:45 33.749769 -117.821899 208 1583ft 96kts
27-Apr-20 17:46 33.726248 -117.836898 207 1056ft 96kts
27-Apr-20 17:47 33.703720 -117.851115 208 581ft 79kts
27-Apr-20 17:48 33.685339 -117.862735 206 182ft 72kts
27-Apr-20 17:49 33.675012 -117.868816 161 59ft 9kts
27-Apr-20 17:50 33.674420 -117.868531 144 59ft 10kts
27-Apr-20 17:51 33.672575 -117.867662 225 59ft 12kts
27-Apr-20 17:52 33.669848 -117.870531 218 59ft 12kts
27-Apr-20 17:53 33.666753 -117.872874 92 59ft 8kts
27-Apr-20 17:54 33.666980 -117.872603 33 59ft 0kts

Navigation Log

Ident Type
Flight plan parsing failed, navigation log unavailable